sensor_id;sensor_type;location;lat;lon;timestamp;P1;durP1;ratioP1;P2;durP2;ratioP2
44885;SDS011;36669;51.428;21.162;2022-08-01T00:01:31;7.45;;;5.72;;
44885;SDS011;36669;51.428;21.162;2022-08-01T00:03:58;9.23;;;6.18;;
44885;SDS011;36669;51.428;21.162;2022-08-01T00:06:26;10.40;;;6.55;;
44885;SDS011;36669;51.428;21.162;2022-08-01T00:08:52;10.90;;;6.20;;
44885;SDS011;36669;51.428;21.162;2022-08-01T00:11:19;8.75;;;6.32;;
44885;SDS011;36669;51.428;21.162;2022-08-01T00:13:46;6.88;;;6.03;;
44885;SDS011;36669;51.428;21.162;2022-08-01T00:16:14;9.88;;;6.28;;
44885;SDS011;36669;51.428;21.162;2022-08-01T00:18:41;10.70;;;6.30;;
44885;SDS011;36669;51.428;21.162;2022-08-01T00:21:09;10.60;;;7.15;;
44885;SDS011;36669;51.428;21.162;2022-08-01T00:23:36;8.20;;;6.82;;
44885;SDS011;36669;51.428;21.162;2022-08-01T00:26:03;12.77;;;7.63;;
44885;SDS011;36669;51.428;21.162;2022-08-01T00:28:29;9.40;;;7.57;;
44885;SDS011;36669;51.428;21.162;2022-08-01T00:30:57;11.70;;;7.20;;
44885;SDS011;36669;51.428;21.162;2022-08-01T00:33:22;9.50;;;7.43;;
44885;SDS011;36669;51.428;21.162;2022-08-01T00:35:49;12.57;;;8.05;;
44885;SDS011;36669;51.428;21.162;2022-08-01T00:38:17;13.05;;;8.45;;
44885;SDS011;36669;51.428;21.162;2022-08-01T00:40:42;12.93;;;8.73;;
44885;SDS011;36669;51.428;21.162;2022-08-01T00:43:10;14.20;;;9.55;;
44885;SDS011;36669;51.428;21.162;2022-08-01T00:45:38;15.68;;;9.73;;
44885;SDS011;36669;51.428;21.162;2022-08-01T00:48:04;16.08;;;8.48;;
44885;SDS011;36669;51.428;21.162;2022-08-01T00:50:32;11.57;;;8.38;;
44885;SDS011;36669;51.428;21.162;2022-08-01T00:52:58;8.70;;;7.57;;
44885;SDS011;36669;51.428;21.162;2022-08-01T00:55:27;14.00;;;7.70;;
44885;SDS011;36669;51.428;21.162;2022-08-01T00:57:57;8.25;;;7.25;;
44885;SDS011;36669;51.428;21.162;2022-08-01T01:00:26;11.00;;;7.88;;
44885;SDS011;36669;51.428;21.162;2022-08-01T01:02:53;10.68;;;7.75;;
44885;SDS011;36669;51.428;21.162;2022-08-01T01:05:20;8.73;;;7.72;;
44885;SDS011;36669;51.428;21.162;2022-08-01T01:08:11;10.40;;;7.35;;
44885;SDS011;36669;51.428;21.162;2022-08-01T01:11:13;9.55;;;7.30;;
44885;SDS011;36669;51.428;21.162;2022-08-01T01:13:46;12.45;;;6.90;;
44885;SDS011;36669;51.428;21.162;2022-08-01T01:16:19;9.85;;;6.75;;
44885;SDS011;36669;51.428;21.162;2022-08-01T01:19:07;11.20;;;7.28;;
44885;SDS011;36669;51.428;21.162;2022-08-01T01:24:50;16.33;;;8.60;;
44885;SDS011;36669;51.428;21.162;2022-08-01T01:30:56;11.40;;;7.15;;
44885;SDS011;36669;51.428;21.162;2022-08-01T01:33:25;14.32;;;6.32;;
44885;SDS011;36669;51.428;21.162;2022-08-01T01:35:57;8.90;;;6.30;;
44885;SDS011;36669;51.428;21.162;2022-08-01T01:38:32;9.77;;;7.03;;
44885;SDS011;36669;51.428;21.162;2022-08-01T01:41:02;10.48;;;6.28;;
44885;SDS011;36669;51.428;21.162;2022-08-01T01:43:31;10.27;;;6.57;;
44885;SDS011;36669;51.428;21.162;2022-08-01T01:45:59;10.15;;;7.03;;
44885;SDS011;36669;51.428;21.162;2022-08-01T01:48:27;9.70;;;6.40;;
44885;SDS011;36669;51.428;21.162;2022-08-01T01:50:57;10.20;;;6.68;;
44885;SDS011;36669;51.428;21.162;2022-08-01T01:53:25;11.70;;;6.38;;
44885;SDS011;36669;51.428;21.162;2022-08-01T01:55:55;10.80;;;6.30;;
44885;SDS011;36669;51.428;21.162;2022-08-01T01:58:32;10.55;;;6.50;;
44885;SDS011;36669;51.428;21.162;2022-08-01T02:01:02;8.43;;;5.82;;
44885;SDS011;36669;51.428;21.162;2022-08-01T02:03:31;7.65;;;6.25;;
44885;SDS011;36669;51.428;21.162;2022-08-01T02:06:00;11.95;;;6.95;;
44885;SDS011;36669;51.428;21.162;2022-08-01T02:08:29;11.35;;;6.95;;
44885;SDS011;36669;51.428;21.162;2022-08-01T02:10:59;13.70;;;7.28;;
44885;SDS011;36669;51.428;21.162;2022-08-01T02:13:28;14.18;;;6.38;;
44885;SDS011;36669;51.428;21.162;2022-08-01T02:15:58;10.27;;;6.20;;
44885;SDS011;36669;51.428;21.162;2022-08-01T02:18:38;12.13;;;7.07;;
44885;SDS011;36669;51.428;21.162;2022-08-01T02:21:05;9.57;;;6.88;;
44885;SDS011;36669;51.428;21.162;2022-08-01T02:23:36;11.43;;;7.13;;
44885;SDS011;36669;51.428;21.162;2022-08-01T02:26:07;15.70;;;7.78;;
44885;SDS011;36669;51.428;21.162;2022-08-01T02:28:50;14.73;;;6.82;;
44885;SDS011;36669;51.428;21.162;2022-08-01T02:31:29;13.10;;;6.85;;
44885;SDS011;36669;51.428;21.162;2022-08-01T02:34:09;12.85;;;8.10;;
44885;SDS011;36669;51.428;21.162;2022-08-01T02:36:39;11.02;;;6.95;;
44885;SDS011;36669;51.428;21.162;2022-08-01T02:39:09;14.57;;;7.28;;
44885;SDS011;36669;51.428;21.162;2022-08-01T02:44:06;11.82;;;6.75;;
44885;SDS011;36669;51.428;21.162;2022-08-01T02:46:41;10.90;;;7.25;;
44885;SDS011;36669;51.428;21.162;2022-08-01T02:49:15;11.85;;;6.68;;
44885;SDS011;36669;51.428;21.162;2022-08-01T02:51:44;13.30;;;6.97;;
44885;SDS011;36669;51.428;21.162;2022-08-01T02:54:15;13.88;;;6.60;;
44885;SDS011;36669;51.428;21.162;2022-08-01T02:56:46;8.63;;;6.68;;
44885;SDS011;36669;51.428;21.162;2022-08-01T02:59:26;11.32;;;6.82;;
44885;SDS011;36669;51.428;21.162;2022-08-01T03:01:57;10.00;;;6.55;;
44885;SDS011;36669;51.428;21.162;2022-08-01T03:04:27;13.70;;;7.05;;
44885;SDS011;36669;51.428;21.162;2022-08-01T03:06:55;11.82;;;6.25;;
44885;SDS011;36669;51.428;21.162;2022-08-01T03:09:23;13.27;;;7.13;;
44885;SDS011;36669;51.428;21.162;2022-08-01T03:11:51;24.85;;;6.78;;
44885;SDS011;36669;51.428;21.162;2022-08-01T03:14:21;14.13;;;7.00;;
44885;SDS011;36669;51.428;21.162;2022-08-01T03:16:50;13.48;;;6.03;;
44885;SDS011;36669;51.428;21.162;2022-08-01T03:19:21;9.32;;;6.28;;
44885;SDS011;36669;51.428;21.162;2022-08-01T03:21:50;11.93;;;6.45;;
44885;SDS011;36669;51.428;21.162;2022-08-01T03:24:21;12.30;;;6.25;;
44885;SDS011;36669;51.428;21.162;2022-08-01T03:26:50;8.27;;;6.28;;
44885;SDS011;36669;51.428;21.162;2022-08-01T03:29:20;10.63;;;6.25;;
44885;SDS011;36669;51.428;21.162;2022-08-01T03:31:50;8.38;;;6.20;;
44885;SDS011;36669;51.428;21.162;2022-08-01T03:34:19;12.90;;;7.63;;
44885;SDS011;36669;51.428;21.162;2022-08-01T03:40:17;14.73;;;5.97;;
44885;SDS011;36669;51.428;21.162;2022-08-01T03:42:49;9.88;;;5.53;;
44885;SDS011;36669;51.428;21.162;2022-08-01T03:45:34;9.27;;;5.10;;
44885;SDS011;36669;51.428;21.162;2022-08-01T03:48:14;6.43;;;4.97;;
44885;SDS011;36669;51.428;21.162;2022-08-01T03:50:46;8.50;;;5.22;;
44885;SDS011;36669;51.428;21.162;2022-08-01T03:53:19;8.30;;;5.05;;
44885;SDS011;36669;51.428;21.162;2022-08-01T03:56:06;9.20;;;4.65;;
44885;SDS011;36669;51.428;21.162;2022-08-01T03:58:41;7.00;;;5.10;;
44885;SDS011;36669;51.428;21.162;2022-08-01T04:01:10;7.00;;;4.82;;
44885;SDS011;36669;51.428;21.162;2022-08-01T04:03:37;8.05;;;4.65;;
44885;SDS011;36669;51.428;21.162;2022-08-01T04:06:05;15.63;;;6.35;;
44885;SDS011;36669;51.428;21.162;2022-08-01T04:08:39;10.02;;;5.47;;
44885;SDS011;36669;51.428;21.162;2022-08-01T04:13:34;9.60;;;5.70;;
44885;SDS011;36669;51.428;21.162;2022-08-01T04:16:00;8.48;;;5.55;;
44885;SDS011;36669;51.428;21.162;2022-08-01T04:18:27;8.23;;;6.10;;
44885;SDS011;36669;51.428;21.162;2022-08-01T04:20:54;8.88;;;6.03;;
44885;SDS011;36669;51.428;21.162;2022-08-01T04:23:23;10.45;;;6.18;;
44885;SDS011;36669;51.428;21.162;2022-08-01T04:25:50;9.65;;;6.30;;
44885;SDS011;36669;51.428;21.162;2022-08-01T04:28:19;8.95;;;6.78;;
44885;SDS011;36669;51.428;21.162;2022-08-01T04:30:47;12.63;;;7.68;;
44885;SDS011;36669;51.428;21.162;2022-08-01T04:33:22;12.30;;;7.85;;
44885;SDS011;36669;51.428;21.162;2022-08-01T04:35:57;9.95;;;8.80;;
44885;SDS011;36669;51.428;21.162;2022-08-01T04:38:36;15.70;;;8.30;;
44885;SDS011;36669;51.428;21.162;2022-08-01T04:41:06;13.60;;;9.23;;
44885;SDS011;36669;51.428;21.162;2022-08-01T04:43:36;14.25;;;8.50;;
44885;SDS011;36669;51.428;21.162;2022-08-01T04:46:05;13.98;;;9.05;;
44885;SDS011;36669;51.428;21.162;2022-08-01T04:48:48;12.32;;;9.05;;
44885;SDS011;36669;51.428;21.162;2022-08-01T04:51:17;14.05;;;8.90;;
44885;SDS011;36669;51.428;21.162;2022-08-01T04:53:47;11.00;;;8.77;;
44885;SDS011;36669;51.428;21.162;2022-08-01T04:56:14;13.10;;;8.88;;
44885;SDS011;36669;51.428;21.162;2022-08-01T04:58:41;13.98;;;7.45;;
44885;SDS011;36669;51.428;21.162;2022-08-01T05:01:10;11.70;;;9.25;;
44885;SDS011;36669;51.428;21.162;2022-08-01T05:03:37;12.18;;;8.77;;
44885;SDS011;36669;51.428;21.162;2022-08-01T05:06:05;10.18;;;9.07;;
44885;SDS011;36669;51.428;21.162;2022-08-01T05:08:33;16.75;;;9.23;;
44885;SDS011;36669;51.428;21.162;2022-08-01T05:11:00;11.52;;;9.70;;
44885;SDS011;36669;51.428;21.162;2022-08-01T05:13:28;18.50;;;10.55;;
44885;SDS011;36669;51.428;21.162;2022-08-01T05:15:55;14.23;;;8.50;;
44885;SDS011;36669;51.428;21.162;2022-08-01T05:18:22;11.00;;;8.05;;
44885;SDS011;36669;51.428;21.162;2022-08-01T05:20:50;13.32;;;9.57;;
44885;SDS011;36669;51.428;21.162;2022-08-01T05:23:18;11.88;;;8.18;;
44885;SDS011;36669;51.428;21.162;2022-08-01T05:25:45;17.10;;;10.27;;
44885;SDS011;36669;51.428;21.162;2022-08-01T05:28:12;12.88;;;11.07;;
44885;SDS011;36669;51.428;21.162;2022-08-01T05:30:40;15.73;;;11.95;;
44885;SDS011;36669;51.428;21.162;2022-08-01T05:33:07;13.90;;;11.95;;
44885;SDS011;36669;51.428;21.162;2022-08-01T05:35:33;17.20;;;12.85;;
44885;SDS011;36669;51.428;21.162;2022-08-01T05:38:01;14.98;;;12.93;;
44885;SDS011;36669;51.428;21.162;2022-08-01T05:40:27;19.25;;;13.57;;
44885;SDS011;36669;51.428;21.162;2022-08-01T05:42:55;22.92;;;13.35;;
44885;SDS011;36669;51.428;21.162;2022-08-01T05:45:21;18.98;;;13.18;;
44885;SDS011;36669;51.428;21.162;2022-08-01T05:47:48;14.18;;;12.68;;
44885;SDS011;36669;51.428;21.162;2022-08-01T05:50:15;16.52;;;13.02;;
44885;SDS011;36669;51.428;21.162;2022-08-01T05:52:43;18.58;;;13.27;;
44885;SDS011;36669;51.428;21.162;2022-08-01T05:55:11;14.60;;;12.40;;
44885;SDS011;36669;51.428;21.162;2022-08-01T05:57:38;14.80;;;11.95;;
44885;SDS011;36669;51.428;21.162;2022-08-01T06:00:08;14.75;;;12.05;;
44885;SDS011;36669;51.428;21.162;2022-08-01T06:02:39;14.63;;;12.00;;
44885;SDS011;36669;51.428;21.162;2022-08-01T06:05:06;18.80;;;12.15;;
44885;SDS011;36669;51.428;21.162;2022-08-01T06:07:33;16.25;;;12.07;;
44885;SDS011;36669;51.428;21.162;2022-08-01T06:10:01;11.60;;;10.40;;
44885;SDS011;36669;51.428;21.162;2022-08-01T06:12:32;14.68;;;11.23;;
44885;SDS011;36669;51.428;21.162;2022-08-01T06:14:59;13.90;;;10.60;;
44885;SDS011;36669;51.428;21.162;2022-08-01T06:17:28;12.07;;;9.55;;
44885;SDS011;36669;51.428;21.162;2022-08-01T06:19:55;12.35;;;9.40;;
44885;SDS011;36669;51.428;21.162;2022-08-01T06:22:22;12.30;;;8.93;;
44885;SDS011;36669;51.428;21.162;2022-08-01T06:24:50;10.13;;;8.68;;
44885;SDS011;36669;51.428;21.162;2022-08-01T06:27:16;13.07;;;9.25;;
44885;SDS011;36669;51.428;21.162;2022-08-01T06:29:43;13.48;;;8.80;;
44885;SDS011;36669;51.428;21.162;2022-08-01T06:32:10;14.05;;;9.45;;
44885;SDS011;36669;51.428;21.162;2022-08-01T06:34:36;9.50;;;7.40;;
44885;SDS011;36669;51.428;21.162;2022-08-01T06:37:03;12.43;;;8.52;;
44885;SDS011;36669;51.428;21.162;2022-08-01T06:39:31;11.40;;;8.38;;
44885;SDS011;36669;51.428;21.162;2022-08-01T06:41:59;11.80;;;7.32;;
44885;SDS011;36669;51.428;21.162;2022-08-01T06:44:25;12.25;;;5.90;;
44885;SDS011;36669;51.428;21.162;2022-08-01T06:46:53;9.55;;;6.68;;
44885;SDS011;36669;51.428;21.162;2022-08-01T06:49:21;8.60;;;5.82;;
44885;SDS011;36669;51.428;21.162;2022-08-01T06:51:46;8.60;;;4.68;;
44885;SDS011;36669;51.428;21.162;2022-08-01T06:54:14;7.28;;;4.80;;
44885;SDS011;36669;51.428;21.162;2022-08-01T06:56:41;6.68;;;5.00;;
44885;SDS011;36669;51.428;21.162;2022-08-01T06:59:08;8.82;;;4.28;;
44885;SDS011;36669;51.428;21.162;2022-08-01T07:01:36;5.22;;;3.40;;
44885;SDS011;36669;51.428;21.162;2022-08-01T07:04:04;6.82;;;3.35;;
44885;SDS011;36669;51.428;21.162;2022-08-01T07:06:32;9.82;;;4.03;;
44885;SDS011;36669;51.428;21.162;2022-08-01T07:08:59;8.07;;;3.58;;
44885;SDS011;36669;51.428;21.162;2022-08-01T07:11:27;5.05;;;3.38;;
44885;SDS011;36669;51.428;21.162;2022-08-01T07:13:53;5.20;;;3.22;;
44885;SDS011;36669;51.428;21.162;2022-08-01T07:16:20;5.85;;;3.03;;
44885;SDS011;36669;51.428;21.162;2022-08-01T07:18:47;8.07;;;3.00;;
44885;SDS011;36669;51.428;21.162;2022-08-01T07:21:14;5.75;;;3.20;;
44885;SDS011;36669;51.428;21.162;2022-08-01T07:23:40;8.38;;;3.35;;
44885;SDS011;36669;51.428;21.162;2022-08-01T07:26:07;9.98;;;3.15;;
44885;SDS011;36669;51.428;21.162;2022-08-01T07:28:34;3.88;;;3.00;;
44885;SDS011;36669;51.428;21.162;2022-08-01T07:31:01;6.05;;;2.90;;
44885;SDS011;36669;51.428;21.162;2022-08-01T07:33:28;6.47;;;2.80;;
44885;SDS011;36669;51.428;21.162;2022-08-01T07:35:54;7.47;;;2.72;;
44885;SDS011;36669;51.428;21.162;2022-08-01T07:38:21;6.95;;;2.60;;
44885;SDS011;36669;51.428;21.162;2022-08-01T07:40:46;3.95;;;2.60;;
44885;SDS011;36669;51.428;21.162;2022-08-01T07:43:12;2.88;;;2.42;;
44885;SDS011;36669;51.428;21.162;2022-08-01T07:45:40;6.22;;;2.63;;
44885;SDS011;36669;51.428;21.162;2022-08-01T07:48:08;3.30;;;2.42;;
44885;SDS011;36669;51.428;21.162;2022-08-01T07:50:34;4.22;;;2.92;;
44885;SDS011;36669;51.428;21.162;2022-08-01T07:53:02;5.03;;;3.13;;
44885;SDS011;36669;51.428;21.162;2022-08-01T07:55:27;7.18;;;2.90;;
44885;SDS011;36669;51.428;21.162;2022-08-01T07:57:54;8.45;;;2.78;;
44885;SDS011;36669;51.428;21.162;2022-08-01T08:00:20;4.47;;;2.60;;
44885;SDS011;36669;51.428;21.162;2022-08-01T08:02:45;2.92;;;2.25;;
44885;SDS011;36669;51.428;21.162;2022-08-01T08:05:14;3.55;;;2.70;;
44885;SDS011;36669;51.428;21.162;2022-08-01T08:07:41;4.65;;;2.80;;
44885;SDS011;36669;51.428;21.162;2022-08-01T08:10:09;5.53;;;2.60;;
44885;SDS011;36669;51.428;21.162;2022-08-01T08:12:36;5.47;;;2.38;;
44885;SDS011;36669;51.428;21.162;2022-08-01T08:15:02;4.93;;;2.95;;
44885;SDS011;36669;51.428;21.162;2022-08-01T08:17:32;3.83;;;2.70;;
44885;SDS011;36669;51.428;21.162;2022-08-01T08:19:58;5.63;;;2.90;;
44885;SDS011;36669;51.428;21.162;2022-08-01T08:22:26;6.78;;;3.05;;
44885;SDS011;36669;51.428;21.162;2022-08-01T08:24:54;4.75;;;2.65;;
44885;SDS011;36669;51.428;21.162;2022-08-01T08:27:21;5.38;;;2.20;;
44885;SDS011;36669;51.428;21.162;2022-08-01T08:29:48;4.05;;;2.67;;
44885;SDS011;36669;51.428;21.162;2022-08-01T08:32:15;2.70;;;2.22;;
44885;SDS011;36669;51.428;21.162;2022-08-01T08:34:43;3.55;;;2.40;;
44885;SDS011;36669;51.428;21.162;2022-08-01T08:37:11;6.43;;;2.65;;
44885;SDS011;36669;51.428;21.162;2022-08-01T08:39:37;6.22;;;2.70;;
44885;SDS011;36669;51.428;21.162;2022-08-01T08:42:08;4.20;;;2.60;;
44885;SDS011;36669;51.428;21.162;2022-08-01T08:44:37;3.15;;;2.85;;
44885;SDS011;36669;51.428;21.162;2022-08-01T08:47:06;4.70;;;3.05;;
44885;SDS011;36669;51.428;21.162;2022-08-01T08:49:34;3.00;;;2.67;;
44885;SDS011;36669;51.428;21.162;2022-08-01T08:52:03;3.45;;;2.65;;
44885;SDS011;36669;51.428;21.162;2022-08-01T08:54:41;3.20;;;2.78;;
44885;SDS011;36669;51.428;21.162;2022-08-01T08:57:08;8.50;;;2.72;;
44885;SDS011;36669;51.428;21.162;2022-08-01T08:59:39;6.30;;;3.10;;
44885;SDS011;36669;51.428;21.162;2022-08-01T09:02:07;8.35;;;3.08;;
44885;SDS011;36669;51.428;21.162;2022-08-01T09:04:33;3.05;;;2.47;;
44885;SDS011;36669;51.428;21.162;2022-08-01T09:06:59;4.15;;;2.78;;
44885;SDS011;36669;51.428;21.162;2022-08-01T09:09:28;6.50;;;3.75;;
44885;SDS011;36669;51.428;21.162;2022-08-01T09:11:55;8.68;;;3.90;;
44885;SDS011;36669;51.428;21.162;2022-08-01T09:14:23;5.13;;;3.10;;
44885;SDS011;36669;51.428;21.162;2022-08-01T09:17:05;3.47;;;2.53;;
44885;SDS011;36669;51.428;21.162;2022-08-01T09:19:45;5.05;;;2.88;;
44885;SDS011;36669;51.428;21.162;2022-08-01T09:22:16;4.05;;;3.05;;
44885;SDS011;36669;51.428;21.162;2022-08-01T09:25:06;4.55;;;3.50;;
44885;SDS011;36669;51.428;21.162;2022-08-01T09:27:37;3.40;;;3.10;;
44885;SDS011;36669;51.428;21.162;2022-08-01T09:30:14;6.40;;;3.05;;
44885;SDS011;36669;51.428;21.162;2022-08-01T09:32:56;6.80;;;3.35;;
44885;SDS011;36669;51.428;21.162;2022-08-01T09:35:24;7.22;;;3.30;;
44885;SDS011;36669;51.428;21.162;2022-08-01T09:38:15;6.93;;;3.20;;
44885;SDS011;36669;51.428;21.162;2022-08-01T09:40:49;4.55;;;3.08;;
44885;SDS011;36669;51.428;21.162;2022-08-01T09:43:18;7.85;;;4.20;;
44885;SDS011;36669;51.428;21.162;2022-08-01T09:45:46;7.70;;;3.35;;
44885;SDS011;36669;51.428;21.162;2022-08-01T09:48:13;4.90;;;2.97;;
44885;SDS011;36669;51.428;21.162;2022-08-01T09:50:41;4.40;;;4.00;;
44885;SDS011;36669;51.428;21.162;2022-08-01T09:53:09;4.75;;;3.50;;
44885;SDS011;36669;51.428;21.162;2022-08-01T09:55:37;5.53;;;3.63;;
44885;SDS011;36669;51.428;21.162;2022-08-01T09:58:05;7.50;;;3.38;;
44885;SDS011;36669;51.428;21.162;2022-08-01T10:00:34;4.70;;;3.28;;
44885;SDS011;36669;51.428;21.162;2022-08-01T10:03:22;9.98;;;3.45;;
44885;SDS011;36669;51.428;21.162;2022-08-01T10:05:51;3.65;;;3.08;;
44885;SDS011;36669;51.428;21.162;2022-08-01T10:08:16;4.03;;;3.50;;
44885;SDS011;36669;51.428;21.162;2022-08-01T10:11:07;4.78;;;3.20;;
44885;SDS011;36669;51.428;21.162;2022-08-01T10:16:06;4.10;;;3.53;;
44885;SDS011;36669;51.428;21.162;2022-08-01T10:18:35;5.78;;;3.75;;
44885;SDS011;36669;51.428;21.162;2022-08-01T10:21:04;5.75;;;3.85;;
44885;SDS011;36669;51.428;21.162;2022-08-01T10:23:33;6.00;;;3.80;;
44885;SDS011;36669;51.428;21.162;2022-08-01T10:26:01;4.18;;;3.67;;
44885;SDS011;36669;51.428;21.162;2022-08-01T10:28:34;6.07;;;3.60;;
44885;SDS011;36669;51.428;21.162;2022-08-01T10:31:02;5.80;;;3.55;;
44885;SDS011;36669;51.428;21.162;2022-08-01T10:33:47;6.32;;;3.38;;
44885;SDS011;36669;51.428;21.162;2022-08-01T10:36:26;6.15;;;3.67;;
44885;SDS011;36669;51.428;21.162;2022-08-01T10:38:54;4.57;;;3.63;;
44885;SDS011;36669;51.428;21.162;2022-08-01T10:41:23;4.80;;;3.05;;
44885;SDS011;36669;51.428;21.162;2022-08-01T10:43:50;4.53;;;3.47;;
44885;SDS011;36669;51.428;21.162;2022-08-01T10:46:19;5.68;;;3.95;;
44885;SDS011;36669;51.428;21.162;2022-08-01T10:48:56;6.82;;;3.83;;
44885;SDS011;36669;51.428;21.162;2022-08-01T10:51:34;6.50;;;3.20;;
44885;SDS011;36669;51.428;21.162;2022-08-01T10:54:04;3.40;;;3.00;;
44885;SDS011;36669;51.428;21.162;2022-08-01T10:56:50;5.72;;;2.70;;
44885;SDS011;36669;51.428;21.162;2022-08-01T10:59:24;5.30;;;3.25;;
44885;SDS011;36669;51.428;21.162;2022-08-01T11:01:57;3.83;;;3.03;;
44885;SDS011;36669;51.428;21.162;2022-08-01T11:05:12;4.78;;;2.85;;
44885;SDS011;36669;51.428;21.162;2022-08-01T11:07:45;4.72;;;3.35;;
44885;SDS011;36669;51.428;21.162;2022-08-01T11:13:05;4.10;;;2.00;;
44885;SDS011;36669;51.428;21.162;2022-08-01T11:15:33;4.78;;;1.70;;
44885;SDS011;36669;51.428;21.162;2022-08-01T11:20:58;3.40;;;1.60;;
44885;SDS011;36669;51.428;21.162;2022-08-01T11:23:27;2.88;;;1.70;;
44885;SDS011;36669;51.428;21.162;2022-08-01T11:26:11;2.85;;;1.58;;
44885;SDS011;36669;51.428;21.162;2022-08-01T11:28:39;3.20;;;1.52;;
44885;SDS011;36669;51.428;21.162;2022-08-01T11:33:49;3.42;;;1.83;;
44885;SDS011;36669;51.428;21.162;2022-08-01T11:36:18;3.80;;;2.25;;
44885;SDS011;36669;51.428;21.162;2022-08-01T11:39:27;4.38;;;1.90;;
44885;SDS011;36669;51.428;21.162;2022-08-01T11:41:38;3.10;;;2.00;;
44885;SDS011;36669;51.428;21.162;2022-08-01T11:44:25;10.43;;;1.80;;
44885;SDS011;36669;51.428;21.162;2022-08-01T11:47:05;5.78;;;1.70;;
44885;SDS011;36669;51.428;21.162;2022-08-01T11:57:35;4.32;;;2.10;;
44885;SDS011;36669;51.428;21.162;2022-08-01T12:00:10;7.63;;;1.70;;
44885;SDS011;36669;51.428;21.162;2022-08-01T12:02:42;10.57;;;1.77;;
44885;SDS011;36669;51.428;21.162;2022-08-01T12:05:11;4.65;;;1.90;;
44885;SDS011;36669;51.428;21.162;2022-08-01T12:07:40;5.53;;;2.03;;
44885;SDS011;36669;51.428;21.162;2022-08-01T12:10:12;3.90;;;1.95;;
44885;SDS011;36669;51.428;21.162;2022-08-01T12:12:44;3.15;;;2.00;;
44885;SDS011;36669;51.428;21.162;2022-08-01T12:15:28;3.30;;;2.13;;
44885;SDS011;36669;51.428;21.162;2022-08-01T12:18:10;5.03;;;1.98;;
44885;SDS011;36669;51.428;21.162;2022-08-01T12:20:41;3.83;;;2.10;;
44885;SDS011;36669;51.428;21.162;2022-08-01T12:23:15;6.22;;;2.00;;
44885;SDS011;36669;51.428;21.162;2022-08-01T12:25:42;2.10;;;1.88;;
44885;SDS011;36669;51.428;21.162;2022-08-01T12:28:11;5.22;;;2.10;;
44885;SDS011;36669;51.428;21.162;2022-08-01T12:30:39;5.68;;;2.30;;
44885;SDS011;36669;51.428;21.162;2022-08-01T12:33:07;4.22;;;2.00;;
44885;SDS011;36669;51.428;21.162;2022-08-01T12:35:46;3.63;;;2.30;;
44885;SDS011;36669;51.428;21.162;2022-08-01T12:38:19;3.67;;;2.40;;
44885;SDS011;36669;51.428;21.162;2022-08-01T12:40:48;2.80;;;1.90;;
44885;SDS011;36669;51.428;21.162;2022-08-01T12:43:17;3.92;;;2.20;;
44885;SDS011;36669;51.428;21.162;2022-08-01T12:45:47;2.88;;;2.25;;
44885;SDS011;36669;51.428;21.162;2022-08-01T12:48:27;4.70;;;2.20;;
44885;SDS011;36669;51.428;21.162;2022-08-01T12:50:56;4.82;;;2.33;;
44885;SDS011;36669;51.428;21.162;2022-08-01T12:53:24;4.93;;;2.20;;
44885;SDS011;36669;51.428;21.162;2022-08-01T12:55:53;3.42;;;2.20;;
44885;SDS011;36669;51.428;21.162;2022-08-01T12:58:32;4.57;;;1.90;;
44885;SDS011;36669;51.428;21.162;2022-08-01T13:01:07;4.43;;;2.40;;
44885;SDS011;36669;51.428;21.162;2022-08-01T13:03:36;3.13;;;2.00;;
44885;SDS011;36669;51.428;21.162;2022-08-01T13:06:09;5.55;;;2.22;;
44885;SDS011;36669;51.428;21.162;2022-08-01T13:08:38;3.47;;;2.42;;
44885;SDS011;36669;51.428;21.162;2022-08-01T13:11:06;4.85;;;2.20;;
44885;SDS011;36669;51.428;21.162;2022-08-01T13:13:39;3.13;;;2.33;;
44885;SDS011;36669;51.428;21.162;2022-08-01T13:16:20;6.88;;;2.42;;
44885;SDS011;36669;51.428;21.162;2022-08-01T13:18:53;6.07;;;2.40;;
44885;SDS011;36669;51.428;21.162;2022-08-01T13:21:24;6.10;;;2.15;;
44885;SDS011;36669;51.428;21.162;2022-08-01T13:24:10;7.45;;;2.60;;
44885;SDS011;36669;51.428;21.162;2022-08-01T13:29:16;4.68;;;2.60;;
44885;SDS011;36669;51.428;21.162;2022-08-01T13:31:48;6.47;;;2.53;;
44885;SDS011;36669;51.428;21.162;2022-08-01T13:34:15;5.32;;;2.00;;
44885;SDS011;36669;51.428;21.162;2022-08-01T13:36:43;4.60;;;2.10;;
44885;SDS011;36669;51.428;21.162;2022-08-01T13:39:10;6.30;;;2.00;;
44885;SDS011;36669;51.428;21.162;2022-08-01T13:41:37;2.63;;;2.10;;
44885;SDS011;36669;51.428;21.162;2022-08-01T13:44:03;6.75;;;1.98;;
44885;SDS011;36669;51.428;21.162;2022-08-01T13:46:30;3.45;;;1.73;;
44885;SDS011;36669;51.428;21.162;2022-08-01T13:48:59;4.38;;;2.05;;
44885;SDS011;36669;51.428;21.162;2022-08-01T13:51:24;4.10;;;2.40;;
44885;SDS011;36669;51.428;21.162;2022-08-01T13:53:52;5.80;;;2.47;;
44885;SDS011;36669;51.428;21.162;2022-08-01T13:56:18;3.30;;;2.58;;
44885;SDS011;36669;51.428;21.162;2022-08-01T13:58:45;4.80;;;2.40;;
44885;SDS011;36669;51.428;21.162;2022-08-01T14:01:14;3.75;;;2.28;;
44885;SDS011;36669;51.428;21.162;2022-08-01T14:03:42;3.22;;;2.20;;
44885;SDS011;36669;51.428;21.162;2022-08-01T14:06:09;5.85;;;2.33;;
44885;SDS011;36669;51.428;21.162;2022-08-01T14:08:40;3.17;;;2.40;;
44885;SDS011;36669;51.428;21.162;2022-08-01T14:11:18;4.68;;;2.72;;
44885;SDS011;36669;51.428;21.162;2022-08-01T14:13:43;5.72;;;2.38;;
44885;SDS011;36669;51.428;21.162;2022-08-01T14:16:11;2.65;;;2.13;;
44885;SDS011;36669;51.428;21.162;2022-08-01T14:18:37;4.72;;;2.28;;
44885;SDS011;36669;51.428;21.162;2022-08-01T14:21:04;6.97;;;2.58;;
44885;SDS011;36669;51.428;21.162;2022-08-01T14:23:31;4.10;;;2.20;;
44885;SDS011;36669;51.428;21.162;2022-08-01T14:25:57;5.13;;;2.40;;
44885;SDS011;36669;51.428;21.162;2022-08-01T14:28:24;5.00;;;2.28;;
44885;SDS011;36669;51.428;21.162;2022-08-01T14:30:51;3.58;;;2.38;;
44885;SDS011;36669;51.428;21.162;2022-08-01T14:33:19;5.22;;;2.55;;
44885;SDS011;36669;51.428;21.162;2022-08-01T14:35:46;3.28;;;2.13;;
44885;SDS011;36669;51.428;21.162;2022-08-01T14:38:12;3.97;;;2.50;;
44885;SDS011;36669;51.428;21.162;2022-08-01T14:40:39;3.67;;;2.42;;
44885;SDS011;36669;51.428;21.162;2022-08-01T14:43:06;2.95;;;2.10;;
44885;SDS011;36669;51.428;21.162;2022-08-01T14:45:33;6.57;;;2.30;;
44885;SDS011;36669;51.428;21.162;2022-08-01T14:48:00;3.65;;;2.35;;
44885;SDS011;36669;51.428;21.162;2022-08-01T14:50:28;3.53;;;2.50;;
44885;SDS011;36669;51.428;21.162;2022-08-01T14:52:55;2.40;;;2.20;;
44885;SDS011;36669;51.428;21.162;2022-08-01T14:55:23;3.03;;;2.40;;
44885;SDS011;36669;51.428;21.162;2022-08-01T14:57:52;3.40;;;2.30;;
44885;SDS011;36669;51.428;21.162;2022-08-01T15:00:19;7.13;;;2.40;;
44885;SDS011;36669;51.428;21.162;2022-08-01T15:02:47;4.25;;;2.70;;
44885;SDS011;36669;51.428;21.162;2022-08-01T15:05:14;3.95;;;2.50;;
44885;SDS011;36669;51.428;21.162;2022-08-01T15:07:42;5.07;;;2.60;;
44885;SDS011;36669;51.428;21.162;2022-08-01T15:10:12;4.07;;;2.45;;
44885;SDS011;36669;51.428;21.162;2022-08-01T15:12:40;3.65;;;2.50;;
44885;SDS011;36669;51.428;21.162;2022-08-01T15:15:08;4.03;;;2.50;;
44885;SDS011;36669;51.428;21.162;2022-08-01T15:17:36;4.03;;;2.63;;
44885;SDS011;36669;51.428;21.162;2022-08-01T15:20:04;7.50;;;2.72;;
44885;SDS011;36669;51.428;21.162;2022-08-01T15:22:32;7.35;;;2.65;;